Terminal Aerodrome Forecast
Issued by NWS

Home | Current Version | Previous Version | Text Only | Print | Product List | Glossary On
Versions: 1 2 3 4 5 6 7 8 9 10 11 12 13 14 15 16 17 18 19 20 21
000
FTUS42 KMHX 190500 CCA
TAFOAJ
TAF COR
KOAJ 190550Z 1906/2006 04012KT 4SM RA BR OVC007
     FM191400 04014G21KT 4SM RA OVC007
     FM191800 04013G20KT 6SM RA BKN007 OVC010
     FM200000 05014G20KT P6SM -RA OVC010
      AMD LTD TO CLD VIS AND WIND=

USA.gov is the U.S. government's official web portal to all federal, state and local government web resources and services.